Time;durP1;ratioP1;P1;durP2;ratioP2;P2;SDS_P1;SDS_P2;PMS_P1;PMS_P2;Temp;Humidity;BMP_temperature;BMP_pressure;BME280_temperature;BME280_humidity;BME280_pressure;Samples;Min_cycle;Max_cycle;Signal;HPM_P1;HPM_P2
2022/09/24 00:02:45;;;;;;;3.83;2.35;;;;;;;8.82;79.29;99986.69;4448904;32;35268;-75
2022/09/24 00:05:39;;;;;;;4.95;2.53;;;;;;;9.06;78.18;99986.69;4449421;32;35526;-74
2022/09/24 00:08:24;;;;;;;4.30;2.42;;;;;;;8.89;78.94;99981.69;4425696;32;34964;-74
2022/09/24 00:11:12;;;;;;;3.37;2.05;;;;;;;8.91;78.98;99987.69;4447769;32;34701;-74
2022/09/24 00:13:58;;;;;;;6.50;2.30;;;;;;;8.59;81.24;99988.31;4435926;32;33715;-75
2022/09/24 00:16:45;;;;;;;4.78;2.28;;;;;;;8.85;79.22;99991.59;4435391;32;34746;-74
2022/09/24 00:19:31;;;;;;;4.03;2.28;;;;;;;8.77;79.32;99984.03;4448866;32;35072;-75
2022/09/24 00:22:18;;;;;;;4.47;2.58;;;;;;;8.52;80.52;99985.91;4436063;32;35111;-74
2022/09/24 00:28:11;;;;;;;3.47;2.10;;;;;;;8.89;78.83;99980.88;4448251;32;34828;-74
2022/09/24 00:30:58;;;;;;;5.18;2.15;;;;;;;8.64;79.71;99990.19;4446438;32;35607;-74
2022/09/24 00:33:45;;;;;;;5.07;2.30;;;;;;;8.76;78.61;99990.59;4444901;32;35493;-75
2022/09/24 00:36:31;;;;;;;4.87;2.40;;;;;;;8.95;77.03;99982.44;4441625;32;34188;-75
2022/09/24 00:39:18;;;;;;;4.15;2.20;;;;;;;8.72;77.47;99987.63;4449499;32;35248;-74
2022/09/24 00:42:04;;;;;;;4.20;2.17;;;;;;;8.79;78.38;99992.72;4437637;32;34906;-74
2022/09/24 00:44:54;;;;;;;4.50;2.22;;;;;;;8.83;77.66;99980.13;4437737;32;36030;-75
2022/09/24 00:47:40;;;;;;;4.18;2.00;;;;;;;8.84;77.70;99979.03;4435211;32;33800;-74
2022/09/24 00:50:33;;;;;;;4.28;1.85;;;;;;;8.68;78.33;99977.56;4429536;32;34577;-75
2022/09/24 00:53:21;;;;;;;4.78;2.10;;;;;;;7.98;81.57;99977.94;4433107;32;35114;-75
2022/09/24 00:56:10;;;;;;;4.53;2.28;;;;;;;7.80;83.47;99971.25;4438261;32;34670;-74
2022/09/24 00:58:57;;;;;;;3.87;1.98;;;;;;;7.99;83.66;99966.72;4435030;32;35380;-74
2022/09/24 01:01:44;;;;;;;4.15;2.20;;;;;;;7.47;85.61;99968.19;4435680;32;35178;-75
2022/09/24 01:04:31;;;;;;;4.87;2.50;;;;;;;6.61;92.66;99964.78;4424935;32;35847;-74
2022/09/24 01:07:18;;;;;;;4.22;2.03;;;;;;;7.94;84.76;99961.31;4447596;32;35238;-75
2022/09/24 01:10:05;;;;;;;4.22;2.05;;;;;;;7.98;84.13;99962.37;4447649;32;34154;-75
2022/09/24 01:12:57;;;;;;;5.15;2.00;;;;;;;8.31;82.22;99948.97;4437553;32;35548;-74
2022/09/24 01:15:50;;;;;;;7.20;2.35;;;;;;;8.14;82.69;99963.06;4435783;32;34587;-74
2022/09/24 01:18:43;;;;;;;5.35;2.30;;;;;;;8.28;82.16;99963.19;4426546;32;34602;-74
2022/09/24 01:21:36;;;;;;;6.95;3.35;;;;;;;8.54;79.64;99947.41;4436424;32;35118;-75
2022/09/24 01:24:41;;;;;;;4.47;2.33;;;;;;;7.90;82.05;99949.34;4430701;32;35158;-75
2022/09/24 01:27:41;;;;;;;3.22;1.73;;;;;;;8.25;81.02;99947.37;4449079;32;35003;-75
2022/09/24 01:30:31;;;;;;;4.72;2.12;;;;;;;7.86;82.50;99945.56;4448498;32;36088;-75
2022/09/24 01:33:19;;;;;;;3.70;1.90;;;;;;;7.47;86.56;99946.38;4435236;32;33134;-74
2022/09/24 01:36:07;;;;;;;5.32;2.20;;;;;;;8.19;81.03;99946.63;4431820;32;33414;-75
2022/09/24 01:38:54;;;;;;;4.57;1.92;;;;;;;7.99;81.28;99936.69;4436474;32;34581;-75
2022/09/24 01:41:41;;;;;;;2.65;1.70;;;;;;;8.10;81.51;99937.44;4435164;32;34633;-75
2022/09/24 01:44:29;;;;;;;3.53;2.00;;;;;;;8.10;81.51;99943.69;4432396;32;34007;-74
2022/09/24 01:47:20;;;;;;;5.43;2.10;;;;;;;7.07;84.67;99931.91;4427550;32;34569;-74
2022/09/24 01:50:09;;;;;;;4.75;2.20;;;;;;;7.31;85.59;99936.66;4425192;32;34998;-75
2022/09/24 01:53:31;;;;;;;3.70;2.03;;;;;;;6.30;93.17;99934.09;4437020;32;35668;-74
2022/09/24 01:56:31;;;;;;;4.93;1.67;;;;;;;7.06;89.15;99927.56;4414247;32;33162;-75
2022/09/24 01:59:37;;;;;;;4.82;1.62;;;;;;;7.28;87.28;99929.88;4435654;32;34188;-75
2022/09/24 02:02:29;;;;;;;3.62;1.75;;;;;;;6.39;93.53;99937.06;4432378;32;34573;-75
2022/09/24 02:05:38;;;;;;;3.28;1.77;;;;;;;7.29;87.99;99938.88;4438148;32;35558;-75
2022/09/24 02:08:32;;;;;;;5.90;1.90;;;;;;;7.37;86.68;99939.09;4448343;32;34116;-75
2022/09/24 02:11:21;;;;;;;3.53;1.90;;;;;;;7.33;87.13;99932.56;4437128;32;35482;-75
2022/09/24 02:14:12;;;;;;;6.62;2.30;;;;;;;7.31;87.51;99936.66;4426307;32;35086;-74
2022/09/24 02:16:59;;;;;;;3.28;2.03;;;;;;;7.49;86.46;99935.22;4447780;32;35186;-75
2022/09/24 02:19:45;;;;;;;5.30;2.35;;;;;;;6.76;89.66;99932.03;4446244;32;34214;-75
2022/09/24 02:22:31;;;;;;;3.70;1.92;;;;;;;7.64;85.38;99935.91;4425749;32;34674;-74
2022/09/24 02:25:22;;;;;;;3.33;1.83;;;;;;;7.58;85.16;99942.50;4434321;32;35619;-75
2022/09/24 02:28:08;;;;;;;3.20;1.70;;;;;;;7.67;83.87;99939.97;4424626;32;34563;-75
2022/09/24 02:31:07;;;;;;;3.08;1.55;;;;;;;7.91;82.78;99936.50;4446226;32;34227;-75
2022/09/24 02:37:07;;;;;;;4.20;1.90;;;;;;;8.21;80.85;99940.87;4435503;32;35999;-74
2022/09/24 02:39:53;;;;;;;3.05;1.70;;;;;;;8.13;80.62;99941.50;4434935;32;35249;-75
2022/09/24 02:42:41;;;;;;;3.15;1.65;;;;;;;8.24;79.32;99943.03;4440270;32;35092;-74
2022/09/24 02:45:27;;;;;;;4.22;2.12;;;;;;;8.40;77.36;99941.00;4450099;32;34710;-75
2022/09/24 02:48:13;;;;;;;4.18;2.00;;;;;;;8.35;77.25;99941.84;4450224;32;35537;-74
2022/09/24 02:51:02;;;;;;;2.65;1.40;;;;;;;8.26;77.40;99940.84;4448344;32;34786;-74
2022/09/24 02:53:49;;;;;;;3.95;1.90;;;;;;;8.03;78.82;99937.78;4449612;32;34917;-74
2022/09/24 02:56:35;;;;;;;4.03;2.00;;;;;;;7.85;80.54;99938.47;4448944;32;34388;-74
2022/09/24 02:59:22;;;;;;;4.07;1.98;;;;;;;7.70;81.31;99938.59;4426923;32;35685;-74
2022/09/24 03:02:08;;;;;;;5.62;1.90;;;;;;;7.39;83.23;99938.81;4437809;32;35191;-74
2022/09/24 03:04:55;;;;;;;3.10;1.92;;;;;;;7.77;81.29;99933.63;4446387;32;34239;-75
2022/09/24 03:07:42;;;;;;;3.55;1.83;;;;;;;7.87;80.90;99936.28;4448905;32;35730;-74
2022/09/24 03:10:28;;;;;;;3.62;2.05;;;;;;;7.45;83.25;99932.22;4450113;32;34951;-74
2022/09/24 03:13:16;;;;;;;3.05;1.92;;;;;;;7.47;83.91;99926.50;4449595;32;33502;-74
2022/09/24 03:16:04;;;;;;;4.55;1.92;;;;;;;7.80;82.24;99924.87;4437146;32;34648;-74
2022/09/24 03:18:50;;;;;;;3.55;1.77;;;;;;;7.93;80.95;99920.66;4447179;32;34584;-74
2022/09/24 03:21:36;;;;;;;3.12;1.73;;;;;;;7.99;80.09;99914.88;4436401;32;34929;-74
2022/09/24 03:24:23;;;;;;;4.45;1.83;;;;;;;8.16;78.16;99913.62;4438300;32;35151;-74
2022/09/24 03:27:08;;;;;;;3.95;2.30;;;;;;;7.94;80.18;99909.50;4449980;32;34153;-75
2022/09/24 03:33:00;;;;;;;3.75;1.80;;;;;;;7.22;83.55;99907.28;4448577;32;35170;-74
2022/09/24 03:35:46;;;;;;;3.72;1.98;;;;;;;7.25;84.69;99902.37;4447544;32;34632;-74
2022/09/24 03:38:33;;;;;;;3.83;2.65;;;;;;;6.99;85.88;99911.50;4437366;32;33826;-74
2022/09/24 03:41:19;;;;;;;4.18;2.20;;;;;;;7.53;84.27;99907.06;4437341;32;34497;-74
2022/09/24 03:44:06;;;;;;;4.03;2.50;;;;;;;7.11;85.49;99905.72;4436975;32;34970;-74
2022/09/24 03:46:52;;;;;;;4.32;2.30;;;;;;;6.63;89.05;99907.31;4448720;32;34872;-74
2022/09/24 03:49:38;;;;;;;5.40;2.50;;;;;;;6.95;87.02;99898.72;4422564;32;33840;-74
2022/09/24 03:52:25;;;;;;;3.95;2.20;;;;;;;7.40;85.53;99897.62;4449549;32;34673;-74
2022/09/24 03:55:10;;;;;;;4.50;2.40;;;;;;;7.92;81.64;99897.22;4448261;32;34615;-74
2022/09/24 03:57:57;;;;;;;3.80;2.12;;;;;;;7.92;80.67;99898.03;4432941;32;34619;-74
2022/09/24 04:00:43;;;;;;;7.15;3.25;;;;;;;7.89;79.61;99893.16;4423285;32;33772;-75
2022/09/24 04:03:30;;;;;;;4.80;2.42;;;;;;;7.67;81.23;99901.78;4445400;32;34166;-74
2022/09/24 04:06:16;;;;;;;5.93;2.58;;;;;;;6.80;85.81;99898.78;4448808;32;34943;-74
2022/09/24 04:09:10;;;;;;;4.78;2.30;;;;;;;7.24;85.33;99889.84;4438531;32;35169;-74
2022/09/24 04:11:56;;;;;;;5.50;2.95;;;;;;;7.53;83.83;99900.81;4449404;32;34203;-74
2022/09/24 04:14:42;;;;;;;5.78;2.67;;;;;;;7.65;82.51;99893.87;4437720;32;34265;-74
2022/09/24 04:17:30;;;;;;;5.47;2.78;;;;;;;7.73;81.42;99900.66;4437470;32;34457;-74
2022/09/24 04:20:21;;;;;;;5.10;2.65;;;;;;;7.59;82.25;99899.66;4436652;32;34601;-74
2022/09/24 04:23:07;;;;;;;4.75;2.42;;;;;;;7.49;83.36;99894.31;4449664;32;34229;-74
2022/09/24 04:25:53;;;;;;;6.20;3.45;;;;;;;7.60;82.50;99902.13;4449224;32;35323;-74
2022/09/24 04:28:39;;;;;;;7.30;3.45;;;;;;;7.44;83.89;99897.88;4448097;32;34899;-73
2022/09/24 04:31:26;;;;;;;7.93;3.10;;;;;;;7.36;84.48;99888.38;4437006;32;33695;-74
2022/09/24 04:34:14;;;;;;;6.95;3.10;;;;;;;7.50;83.24;99907.66;4427107;32;33789;-74
2022/09/24 04:37:00;;;;;;;6.28;2.97;;;;;;;7.59;82.72;99911.38;4448293;32;34495;-73
2022/09/24 04:39:46;;;;;;;7.43;3.45;;;;;;;6.79;85.92;99903.44;4449692;32;35015;-74
2022/09/24 04:42:33;;;;;;;7.03;3.40;;;;;;;6.56;88.34;99895.91;4436800;32;35316;-74
2022/09/24 04:45:20;;;;;;;6.37;3.37;;;;;;;6.85;87.42;99891.41;4447227;32;33876;-74
2022/09/24 04:48:06;;;;;;;6.43;3.75;;;;;;;7.42;85.58;99900.06;4448643;32;35483;-74
2022/09/24 04:50:52;;;;;;;7.47;3.75;;;;;;;6.49;90.23;99904.38;4447881;32;34703;-73
2022/09/24 04:53:39;;;;;;;7.57;3.45;;;;;;;6.51;90.92;99907.63;4446570;32;35168;-74
2022/09/24 04:56:25;;;;;;;6.18;3.08;;;;;;;6.76;89.48;99910.25;4434112;32;34104;-74
2022/09/24 04:59:11;;;;;;;5.35;2.80;;;;;;;7.07;88.51;99904.66;4446615;32;34663;-73
2022/09/24 05:01:58;;;;;;;6.85;3.10;;;;;;;7.62;84.85;99905.38;4445354;32;34630;-74
2022/09/24 05:04:45;;;;;;;6.75;3.08;;;;;;;7.46;86.04;99903.88;4436617;32;35555;-74
2022/09/24 05:07:31;;;;;;;7.50;2.80;;;;;;;7.37;87.30;99908.28;4435679;32;34982;-74
2022/09/24 05:10:17;;;;;;;8.60;3.20;;;;;;;7.57;87.25;99902.69;4446329;32;34146;-74
2022/09/24 05:13:04;;;;;;;6.75;3.22;;;;;;;7.95;85.73;99894.72;4436963;32;34733;-74
2022/09/24 05:15:50;;;;;;;6.28;2.95;;;;;;;7.95;86.06;99886.53;4437095;32;34428;-74
2022/09/24 05:18:37;;;;;;;6.03;3.33;;;;;;;7.85;86.65;99889.34;4436330;32;35094;-74
2022/09/24 05:21:23;;;;;;;7.32;3.00;;;;;;;7.74;87.49;99896.00;4449023;32;35326;-74
2022/09/24 05:24:09;;;;;;;7.25;3.30;;;;;;;7.52;88.98;99891.00;4437008;32;34499;-74
2022/09/24 05:27:10;;;;;;;5.20;2.85;;;;;;;7.10;91.10;99898.62;4447434;32;34641;-75
2022/09/24 05:29:56;;;;;;;6.20;3.10;;;;;;;7.50;89.93;99887.75;4436164;32;34144;-74
2022/09/24 05:32:43;;;;;;;6.65;3.10;;;;;;;7.71;88.69;99902.03;4423952;32;35194;-74
2022/09/24 05:35:29;;;;;;;7.07;3.37;;;;;;;7.56;88.32;99895.59;4431473;32;34509;-74
2022/09/24 05:38:15;;;;;;;6.03;3.22;;;;;;;7.75;89.02;99892.19;4436372;32;34804;-74
2022/09/24 05:41:02;;;;;;;5.57;3.10;;;;;;;8.21;86.77;99887.09;4436796;32;35442;-74
2022/09/24 05:43:48;;;;;;;7.57;3.42;;;;;;;8.45;85.03;99884.44;4437191;32;34607;-74
2022/09/24 05:46:35;;;;;;;7.32;3.87;;;;;;;7.83;88.69;99891.56;4449114;32;34972;-74
2022/09/24 05:49:21;;;;;;;8.65;4.50;;;;;;;6.74;93.36;99884.38;4436323;32;34160;-74
2022/09/24 05:52:08;;;;;;;8.80;4.80;;;;;;;5.62;100.00;99894.41;4437134;32;34123;-74
2022/09/24 05:54:55;;;;;;;9.07;3.87;;;;;;;7.19;99.19;99894.22;4448643;32;35665;-74
2022/09/24 05:57:41;;;;;;;7.75;3.85;;;;;;;7.88;94.97;99906.00;4436289;32;34419;-74
2022/09/24 06:00:28;;;;;;;9.98;4.45;;;;;;;7.78;94.35;99897.06;4447700;32;34349;-74
2022/09/24 06:03:15;;;;;;;9.23;4.70;;;;;;;7.52;96.79;99908.19;4445307;32;33646;-74
2022/09/24 06:06:02;;;;;;;10.57;4.75;;;;;;;6.23;100.00;99912.63;4448697;32;34550;-74
2022/09/24 06:08:48;;;;;;;10.52;5.53;;;;;;;7.52;100.00;99907.38;4430300;32;34875;-74
2022/09/24 06:11:34;;;;;;;9.30;5.07;;;;;;;7.01;100.00;99905.78;4448183;32;34227;-74
2022/09/24 06:14:25;;;;;;;16.65;4.72;;;;;;;7.74;98.95;99912.38;4431936;32;35056;-74
2022/09/24 06:17:11;;;;;;;11.10;4.80;;;;;;;8.29;95.19;99907.50;4448067;32;35465;-74
2022/09/24 06:19:57;;;;;;;8.32;4.97;;;;;;;8.07;96.46;99911.53;4424715;32;36540;-74
2022/09/24 06:22:43;;;;;;;13.57;5.70;;;;;;;8.90;94.21;99915.00;4449550;32;34695;-74
2022/09/24 06:25:29;;;;;;;13.57;6.60;;;;;;;9.29;94.28;99903.00;4449122;32;34258;-74
2022/09/24 06:28:16;;;;;;;12.90;6.40;;;;;;;9.34;95.11;99910.31;4437641;32;34583;-74
2022/09/24 06:31:03;;;;;;;10.30;5.82;;;;;;;8.92;98.47;99915.53;4446036;32;34034;-74
2022/09/24 06:33:50;;;;;;;14.55;7.35;;;;;;;9.14;98.27;99916.91;4436457;32;35708;-74
2022/09/24 06:36:36;;;;;;;12.37;7.43;;;;;;;9.57;97.67;99919.53;4438446;32;33359;-74
2022/09/24 06:39:23;;;;;;;13.82;7.72;;;;;;;10.07;94.91;99919.81;4447368;32;34519;-74
2022/09/24 06:42:10;;;;;;;12.45;7.43;;;;;;;10.21;94.03;99926.13;4424967;32;35003;-74
2022/09/24 06:44:57;;;;;;;12.63;6.97;;;;;;;10.65;91.76;99911.09;4427101;32;34438;-74
2022/09/24 06:47:44;;;;;;;12.98;7.93;;;;;;;10.55;91.28;99909.34;4446363;32;34099;-74
2022/09/24 06:50:33;;;;;;;12.35;7.25;;;;;;;10.83;90.30;99906.59;4449264;32;35437;-75
2022/09/24 06:53:19;;;;;;;13.27;8.00;;;;;;;10.69;90.08;99909.34;4426205;32;34891;-74
2022/09/24 06:56:06;;;;;;;11.48;7.22;;;;;;;10.60;92.34;99908.44;4430016;32;35959;-74
2022/09/24 06:58:53;;;;;;;14.10;7.85;;;;;;;11.05;90.49;99919.59;4448377;32;33934;-73
2022/09/24 07:01:39;;;;;;;14.48;7.60;;;;;;;11.54;87.50;99909.69;4448096;32;34338;-78
2022/09/24 07:04:26;;;;;;;15.20;8.73;;;;;;;11.64;86.28;99916.84;4449051;32;35071;-77
2022/09/24 07:10:17;;;;;;;14.15;9.02;;;;;;;12.08;84.24;99924.31;4443405;32;34051;-77
2022/09/24 07:13:04;;;;;;;16.62;9.50;;;;;;;11.52;87.54;99928.38;4421949;32;34108;-77
2022/09/24 07:15:51;;;;;;;16.55;9.95;;;;;;;11.83;85.90;99933.97;4444855;32;35072;-78
2022/09/24 07:18:37;;;;;;;15.90;9.88;;;;;;;11.90;86.61;99928.88;4432638;32;34197;-77
2022/09/24 07:21:24;;;;;;;14.82;8.90;;;;;;;11.97;86.19;99925.69;4421113;32;33859;-77
2022/09/24 07:24:10;;;;;;;13.73;8.90;;;;;;;12.26;84.66;99936.19;4423549;32;34498;-77
2022/09/24 07:26:57;;;;;;;18.65;9.55;;;;;;;12.24;85.37;99940.37;4431722;32;33848;-77
2022/09/24 07:29:43;;;;;;;15.90;9.68;;;;;;;12.76;84.14;99943.41;4432650;32;35298;-78
2022/09/24 07:32:29;;;;;;;15.07;10.30;;;;;;;12.74;84.13;99940.16;4433571;32;32955;-77
2022/09/24 07:35:17;;;;;;;14.55;9.70;;;;;;;13.09;82.70;99940.25;4448796;32;34464;-78
2022/09/24 07:38:06;;;;;;;16.55;9.88;;;;;;;12.92;84.33;99941.00;4448860;32;33883;-78
2022/09/24 07:40:57;;;;;;;17.10;10.02;;;;;;;13.28;82.15;99949.84;4448684;32;34783;-78
2022/09/24 07:43:44;;;;;;;16.02;10.38;;;;;;;13.43;81.92;99948.59;4431846;32;33664;-78
2022/09/24 07:46:30;;;;;;;17.92;10.15;;;;;;;13.52;81.93;99945.03;4449739;32;35621;-77
2022/09/24 07:49:16;;;;;;;18.37;10.18;;;;;;;13.68;81.86;99944.22;4435916;32;35912;-77
2022/09/24 07:52:02;;;;;;;19.20;10.77;;;;;;;13.75;80.93;99948.47;4448829;32;34624;-77
2022/09/24 07:54:50;;;;;;;17.65;10.38;;;;;;;13.67;81.81;99950.88;4448300;32;34310;-76
2022/09/24 07:57:38;;;;;;;16.17;11.88;;;;;;;13.82;80.31;99954.25;4446435;32;34685;-77
2022/09/24 08:00:24;;;;;;;16.90;11.27;;;;;;;13.89;80.54;99947.13;4437757;32;34662;-77
2022/09/24 08:03:11;;;;;;;16.23;10.77;;;;;;;14.10;79.72;99943.72;4435822;32;35275;-77
2022/09/24 08:05:58;;;;;;;19.33;12.25;;;;;;;14.02;78.18;99947.28;4449316;32;34179;-77
2022/09/24 08:08:48;;;;;;;17.12;10.35;;;;;;;13.97;78.26;99945.50;4435243;32;34617;-77
2022/09/24 08:11:34;;;;;;;16.00;10.70;;;;;;;14.18;77.34;99948.41;4449513;32;35531;-77
2022/09/24 08:14:20;;;;;;;19.77;10.27;;;;;;;14.28;74.20;99942.50;4446113;32;34733;-77
2022/09/24 08:17:06;;;;;;;18.77;10.48;;;;;;;14.11;71.37;99937.84;4424776;32;32797;-78
2022/09/24 08:19:55;;;;;;;14.30;9.32;;;;;;;14.72;71.42;99925.87;4443575;32;34397;-75
2022/09/24 08:22:41;;;;;;;17.77;9.35;;;;;;;14.63;68.73;99934.19;4423639;32;35870;-77
2022/09/24 08:25:28;;;;;;;19.27;9.35;;;;;;;14.83;68.81;99933.44;4431473;32;34799;-76
2022/09/24 08:28:18;;;;;;;17.83;9.15;;;;;;;15.38;65.98;99936.34;4425660;32;35051;-76
2022/09/24 08:31:09;;;;;;;15.55;8.85;;;;;;;15.36;65.23;99931.16;4434686;32;34611;-75
2022/09/24 08:33:56;;;;;;;14.43;8.43;;;;;;;15.24;64.99;99918.09;4445886;32;35535;-76
2022/09/24 08:36:42;;;;;;;15.48;7.78;;;;;;;15.48;64.92;99909.16;4435027;32;34324;-77
2022/09/24 08:39:29;;;;;;;14.57;8.23;;;;;;;15.89;61.51;99910.28;4433284;32;33719;-77
2022/09/24 08:42:31;;;;;;;14.45;7.45;;;;;;;16.05;60.82;99915.97;4436841;32;35469;-76
2022/09/24 08:48:24;;;;;;;12.05;7.30;;;;;;;16.06;61.26;99909.28;4447924;32;34308;-76
2022/09/24 08:51:14;;;;;;;11.77;6.85;;;;;;;15.39;62.15;99902.87;4424678;32;35128;-77
2022/09/24 08:54:06;;;;;;;11.68;7.25;;;;;;;16.23;61.31;99905.53;4432243;32;35676;-77
2022/09/24 08:56:54;;;;;;;;;;;;;;;16.82;59.46;99901.56;4432628;32;34556;-76
2022/09/24 08:59:42;;;;;;;;;;;;;;;16.75;57.74;99906.84;4436390;32;34935;-77
2022/09/24 09:02:34;;;;;;;;;;;;;;;16.72;58.14;99918.63;4425720;32;33635;-77
2022/09/24 09:05:39;;;;;;;;;;;;;;;17.38;54.54;99918.34;4448029;32;34466;-77
2022/09/24 09:08:43;;;;;;;;;;;;;;;16.88;56.92;99911.28;4445144;32;35180;-77
2022/09/24 09:11:50;;;;;;;;;;;;;;;17.42;56.66;99897.13;4442382;32;35309;-77
2022/09/24 09:14:41;;;;;;;;;;;;;;;17.40;56.23;99895.84;4447730;32;34102;-78
2022/09/24 09:17:32;;;;;;;;;;;;;;;17.16;57.96;99891.16;4434816;32;35538;-77
2022/09/24 09:20:35;;;;;;;;;;;;;;;17.69;55.36;99895.50;4434173;32;34849;-77
2022/09/24 09:23:24;;;;;;;;;;;;;;;18.23;53.06;99887.88;4433277;32;35060;-77
2022/09/24 09:26:10;;;;;;;;;;;;;;;17.16;56.40;99889.22;4445446;32;34316;-78
2022/09/24 09:28:57;;;;;;;;;;;;;;;18.20;54.69;99886.63;4434590;32;35499;-77
2022/09/24 09:31:57;;;;;;;;;;;;;;;18.56;54.31;99884.78;4435084;32;35114;-77
2022/09/24 09:34:53;;;;;;;;;;;;;;;18.26;53.89;99885.19;4436822;32;35699;-77
2022/09/24 09:37:50;;;;;;;;;;;;;;;18.38;52.99;99867.66;4447887;32;33686;-78
2022/09/24 09:40:44;;;;;;;9.13;5.10;;;;;;;18.97;49.44;99871.47;4433752;32;35744;-77
2022/09/24 09:43:31;;;;;;;12.25;7.12;;;;;;;18.87;51.63;99870.87;4431041;32;34200;-78
2022/09/24 09:46:32;;;;;;;9.48;6.22;;;;;;;18.66;49.95;99865.56;4445312;32;34268;-77
2022/09/24 09:49:19;;;;;;;10.27;6.65;;;;;;;19.20;49.54;99861.28;4423843;32;32063;-77
2022/09/24 09:52:13;;;;;;;11.73;6.15;;;;;;;20.16;46.51;99861.63;4446276;32;35863;-77
2022/09/24 09:54:59;;;;;;;12.53;6.27;;;;;;;20.16;48.51;99867.97;4430022;32;34129;-78
2022/09/24 09:57:46;;;;;;;10.05;5.90;;;;;;;18.99;50.55;99869.16;4441844;32;34703;-78
2022/09/24 10:00:33;;;;;;;;;;;;;;;19.70;46.79;99872.69;4444847;32;33810;-78
2022/09/24 10:03:23;;;;;;;;;;;;;;;19.69;48.89;99873.84;4432099;32;34228;-77
2022/09/24 10:06:10;;;;;;;;;;;;;;;19.55;49.37;99865.97;4425067;32;35104;-77
2022/09/24 10:09:14;;;;;;;;;;;;;;;19.30;51.15;99859.91;4433805;32;34983;-77
2022/09/24 10:12:07;;;;;;;;;;;;;;;18.82;51.12;99859.25;4429314;32;34597;-77
2022/09/24 10:14:57;;;;;;;;;;;;;;;18.79;53.88;99858.00;4446095;32;34542;-78
2022/09/24 10:17:43;;;;;;;;;;;;;;;19.20;51.81;99855.72;4444266;32;35629;-78
2022/09/24 10:20:32;;;;;;;;;;;;;;;18.94;50.96;99847.22;4444399;32;35936;-77
2022/09/24 10:23:23;;;;;;;;;;;;;;;18.68;52.81;99845.81;4445256;32;35094;-79
2022/09/24 10:26:09;;;;;;;;;;;;;;;19.11;50.06;99844.03;4446939;32;34853;-78
2022/09/24 10:32:00;;;;;;;;;;;;;;;19.56;49.75;99842.59;4434719;32;34847;-78
2022/09/24 10:34:56;;;;;;;;;;;;;;;19.09;49.40;99835.25;4423332;32;34007;-78
2022/09/24 10:37:49;;;;;;;;;;;;;;;19.47;48.04;99826.16;4422828;32;34307;-78
2022/09/24 10:40:38;;;;;;;;;;;;;;;20.13;46.70;99827.00;4434710;32;35820;-77
2022/09/24 10:43:25;;;;;;;;;;;;;;;20.01;44.80;99816.06;4410659;32;34508;-78
2022/09/24 10:46:20;;;;;;;;;;;;;;;20.38;43.31;99824.66;4416734;32;34742;-78
2022/09/24 10:49:13;;;;;;;;;;;;;;;20.85;42.94;99828.16;4445624;32;34891;-77
2022/09/24 10:52:17;;;;;;;;;;;;;;;21.73;39.60;99829.72;4445095;32;36263;-78
2022/09/24 10:55:23;;;;;;;;;;;;;;;21.32;40.11;99832.41;4442863;32;35505;-77
2022/09/24 10:58:16;;;;;;;;;;;;;;;21.17;40.44;99825.00;4446500;32;34879;-79
2022/09/24 11:01:21;;;;;;;;;;;;;;;21.67;37.95;99822.88;4444958;32;35772;-78
2022/09/24 11:04:11;;;;;;;;;;;;;;;21.89;39.13;99821.91;4447825;32;36263;-77
2022/09/24 11:07:19;;;;;;;6.75;2.17;;;;;;;21.36;38.53;99833.22;4444207;32;35766;-77
2022/09/24 11:10:05;;;;;;;;;;;;;;;20.74;39.33;99824.41;4449526;32;34121;-78
2022/09/24 11:13:12;;;;;;;;;;;;;;;20.32;40.00;99809.44;4448501;32;35003;-79
2022/09/24 11:16:20;;;;;;;;;;;;;;;20.13;40.55;99803.94;4438666;32;35225;-78
2022/09/24 11:19:14;;;;;;;;;;;;;;;19.57;42.78;99810.03;4427743;32;34623;-78
2022/09/24 11:22:14;;;;;;;;;;;;;;;19.77;43.17;99797.75;4445157;32;33998;-77
2022/09/24 11:25:16;;;;;;;;;;;;;;;20.14;41.76;99808.31;4436378;32;35771;-78
2022/09/24 11:28:21;;;;;;;;;;;;;;;20.04;42.86;99795.84;4434812;32;35887;-78
2022/09/24 11:31:13;;;;;;;;;;;;;;;20.08;41.91;99782.81;4443778;32;34543;-78
2022/09/24 11:34:02;;;;;;;;;;;;;;;20.46;41.53;99794.94;4439578;32;34059;-77
2022/09/24 11:36:58;;;;;;;;;;;;;;;20.58;39.42;99797.56;4448585;32;33173;-74
2022/09/24 11:40:03;;;;;;;;;;;;;;;20.50;40.87;99783.88;4448675;32;34927;-72
2022/09/24 11:42:49;;;;;;;;;;;;;;;20.58;41.37;99780.84;4448449;32;34873;-73
2022/09/24 11:45:35;;;;;;;;;;;;;;;20.91;40.50;99779.31;4446711;32;33986;-73
2022/09/24 11:48:43;;;;;;;;;;;;;;;21.01;40.95;99778.66;4447579;32;34699;-73
2022/09/24 11:51:33;;;;;;;;;;;;;;;20.51;41.25;99780.69;4437375;32;35755;-72
2022/09/24 11:54:22;;;;;;;;;;;;;;;20.40;42.06;99777.75;4437153;32;34814;-73
2022/09/24 11:57:16;;;;;;;;;;;;;;;20.70;41.45;99779.03;4433893;32;32805;-72
2022/09/24 12:00:07;;;;;;;;;;;;;;;20.99;41.42;99775.44;4433591;32;34774;-72
2022/09/24 12:03:12;;;;;;;;;;;;;;;20.81;40.21;99771.63;4425662;32;34970;-73
2022/09/24 12:06:01;;;;;;;;;;;;;;;20.40;42.23;99766.63;4448425;32;34929;-73
2022/09/24 12:08:50;;;;;;;;;;;;;;;20.02;41.71;99753.69;4426518;32;34026;-72
2022/09/24 12:11:36;;;;;;;;;;;;;;;20.57;41.03;99764.50;4434191;32;35809;-74
2022/09/24 12:14:24;;;;;;;;;;;;;;;19.87;42.96;99761.00;4435038;32;35102;-72
2022/09/24 12:17:16;;;;;;;;;;;;;;;19.66;43.40;99758.63;4448320;32;35363;-72
2022/09/24 12:20:08;;;;;;;;;;;;;;;20.19;42.43;99755.16;4436079;32;34216;-72
2022/09/24 12:23:06;;;;;;;;;;;;;;;20.10;43.26;99749.87;4435426;32;34436;-74
2022/09/24 12:25:53;;;;;;;;;;;;;;;20.40;42.09;99763.03;4439028;32;36178;-73
2022/09/24 12:35:33;;;;;;;;;;;;;;;20.58;42.36;99750.22;4448290;32;34983;-74
2022/09/24 12:38:24;;;;;;;;;;;;;;;20.16;43.01;99751.16;4437345;32;34758;-74
2022/09/24 12:41:16;;;;;;;;;;;;;;;20.22;41.91;99748.84;4438472;32;35661;-73
2022/09/24 12:44:09;;;;;;;;;;;;;;;19.81;42.77;99745.81;4448196;32;34646;-74
2022/09/24 12:46:56;;;;;;;;;;;;;;;19.54;44.11;99742.09;4448590;32;35413;-75
2022/09/24 12:49:43;;;;;;;;;;;;;;;19.78;42.53;99735.44;4434152;32;34533;-74
2022/09/24 12:52:33;;;;;;;;;;;;;;;19.31;44.60;99734.53;4422136;32;35722;-73
2022/09/24 12:55:30;;;;;;;;;;;;;;;19.97;44.21;99742.87;4449059;32;33756;-73
2022/09/24 12:58:28;;;;;;;;;;;;;;;19.61;45.32;99730.31;4425989;32;35710;-74
2022/09/24 13:01:24;;;;;;;;;;;;;;;19.77;43.88;99728.25;4447075;32;35212;-74
2022/09/24 13:04:13;;;;;;;;;;;;;;;19.17;46.80;99723.12;4448793;32;34798;-74
2022/09/24 13:06:59;;;;;;;;;;;;;;;19.28;44.74;99723.34;4448925;32;33771;-73
2022/09/24 13:09:45;;;;;;;;;;;;;;;19.56;43.86;99717.53;4436744;32;35759;-74
2022/09/24 13:12:32;;;;;;;;;;;;;;;19.41;45.09;99721.19;4437071;32;35656;-75
2022/09/24 13:15:34;;;;;;;;;;;;;;;19.60;44.25;99721.16;4426250;32;36995;-73
2022/09/24 13:18:22;;;;;;;;;;;;;;;19.58;44.60;99726.31;4451931;32;34103;-74
2022/09/24 13:21:17;;;;;;;;;;;;;;;20.20;43.23;99729.75;4437169;32;35092;-74
2022/09/24 13:24:10;;;;;;;;;;;;;;;20.06;43.49;99732.28;4447745;32;36249;-74
2022/09/24 13:27:20;;;;;;;;;;;;;;;19.92;44.05;99716.22;4434175;32;35773;-74
2022/09/24 13:30:18;;;;;;;;;;;;;;;20.13;45.52;99712.97;4445328;32;34114;-74
2022/09/24 13:33:22;;;;;;;;;;;;;;;20.48;42.57;99714.66;4435712;32;36268;-74
2022/09/24 13:36:13;;;;;;;;;;;;;;;20.32;43.74;99714.84;4427235;32;36211;-74
2022/09/24 13:39:15;;;;;;;;;;;;;;;20.02;44.52;99711.19;4435854;32;35248;-74
2022/09/24 13:42:07;;;;;;;;;;;;;;;20.27;43.89;99708.78;4435582;32;34880;-74
2022/09/24 13:44:57;;;;;;;;;;;;;;;20.16;44.35;99716.97;4437729;32;34801;-74
2022/09/24 13:47:47;;;;;;;;;;;;;;;19.67;44.14;99714.97;4449775;32;36221;-74
2022/09/24 13:50:38;;;;;;;;;;;;;;;20.07;43.56;99708.88;4436169;32;34869;-74
2022/09/24 13:53:30;;;;;;;;;;;;;;;20.11;42.96;99709.72;4437418;32;32861;-75
2022/09/24 13:56:17;;;;;;;;;;;;;;;19.26;44.55;99709.03;4435123;32;34919;-75
2022/09/24 13:59:05;;;;;;;;;;;;;;;19.35;45.94;99700.44;4437039;32;36071;-75
2022/09/24 14:01:50;;;;;;;;;;;;;;;19.30;45.11;99691.25;4436951;32;35792;-74
2022/09/24 14:04:41;;;;;;;;;;;;;;;19.27;46.07;99694.78;4446456;32;34163;-74
2022/09/24 14:07:27;;;;;;;;;;;;;;;19.25;47.47;99697.13;4437960;32;34773;-75
2022/09/24 14:10:13;;;;;;;;;;;;;;;19.64;45.67;99699.81;4447455;32;35191;-75
2022/09/24 14:13:00;;;;;;;;;;;;;;;19.04;46.99;99702.25;4446852;32;34737;-74
2022/09/24 14:15:52;;;;;;;;;;;;;;;18.87;46.90;99704.31;4436469;32;35081;-75